Clare Christine — V2DT7 — position and weather

sailwx.info

Track history (hours):
 
Tides and Currents Weather Stations Pressure Air Temp Water Temp Dewpoint Dewpoint Depression Visibility Wind Speed Wind Dir Waves Ship Positions

Clare Christine

Last reported at 2016-Oct-26 09:12 UTC. Time now 2016-Dec-04 08:15 UTC.
Position N 53°32' E 009°58'.
Warning: this ship's position is 38 days out of date.

Length 89 m; draft 3.5 m.

Type: Cargo ship. MMSI: 305379000.

Date/timePositionNaut miles runAvg speedWind from/ knotsBaromVisibWave heightAir tempDewpointWater temp
2016-Oct-26 09:12N 53°32' E 009°58'0 0.0
2016-Oct-26 08:33N 53°32' E 009°58'0 0.0
2016-Oct-26 07:33N 53°32' E 009°58'0 0.0
2016-Oct-26 04:33N 53°32' E 009°58'0 0.0
2016-Oct-26 03:33N 53°32' E 009°58'0 0.0
2016-Oct-25 23:33N 53°32' E 009°58'0 0.0
2016-Oct-25 21:33N 53°32' E 009°58'0 0.0
2016-Oct-25 20:33N 53°32' E 009°58'0 0.0
2016-Oct-25 17:33N 53°32' E 009°58'0 0.0
2016-Oct-25 16:33N 53°32' E 009°58'0 0.0
2016-Oct-25 15:33N 53°32' E 009°58'0 0.0
2016-Oct-25 13:33N 53°32' E 009°58'0 0.0
2016-Oct-25 12:33N 53°32' E 009°58'0 0.0
2016-Oct-25 10:33N 53°32' E 009°58'0 0.0
2016-Oct-25 07:33N 53°32' E 009°58'0 0.0
2016-Oct-25 05:33N 53°32' E 009°58'0 0.0
2016-Oct-25 04:33N 53°32' E 009°58'0 0.0
2016-Oct-25 03:33N 53°32' E 009°58'0 0.0
2016-Oct-25 02:33N 53°32' E 009°58'0 0.0
2016-Oct-24 21:33N 53°32' E 009°58'0 0.0
2016-Oct-24 20:33N 53°32' E 009°58'0 0.0
2016-Oct-24 18:33N 53°32' E 009°58'0 0.0
2016-Oct-24 13:33N 53°32' E 009°58'0 0.0
2016-Oct-24 07:33N 53°32' E 009°58'0 0.0
2016-Oct-24 06:33N 53°32' E 009°58'0 0.0
2016-Oct-24 05:33N 53°32' E 009°58'0 0.0
2016-Oct-24 04:33N 53°32' E 009°58'0 0.0
2016-Oct-24 01:33N 53°32' E 009°58'0 0.0
2016-Oct-23 22:33N 53°32' E 009°58'0 0.0
2016-Oct-23 16:33N 53°32' E 009°58'0 0.0
2016-Oct-23 14:33N 53°32' E 009°58'0 0.0
2016-Oct-23 13:33N 53°32' E 009°58'0 0.0
2016-Oct-23 10:33N 53°32' E 009°58'0 0.0
2016-Oct-23 09:33N 53°32' E 009°58'0 0.0
2016-Oct-23 07:33N 53°32' E 009°58'0 0.0
2016-Oct-23 05:33N 53°32' E 009°58'0 0.0
2016-Oct-23 03:33N 53°32' E 009°58'0 0.0
2016-Oct-23 02:33N 53°32' E 009°58'0 0.0
2016-Oct-22 23:33N 53°32' E 009°58'0 0.0
2016-Oct-22 17:33N 53°32' E 009°58'0 0.0
2016-Oct-22 16:33N 53°32' E 009°58'0 0.0
2016-Oct-22 15:33N 53°32' E 009°58'0 0.0
2016-Oct-22 13:33N 53°32' E 009°58'0 0.0
2016-Oct-22 10:33N 53°32' E 009°58'0 0.0
2016-Oct-22 08:33N 53°32' E 009°58'0 0.0
2016-Oct-22 07:33N 53°32' E 009°58'0 0.0
2016-Oct-22 04:33N 53°32' E 009°58'0 0.0
2016-Oct-22 00:33N 53°32' E 009°58'0 0.0
2016-Oct-21 23:33N 53°32' E 009°58'0 0.0
2016-Oct-21 21:33N 53°32' E 009°58'0 0.0
2016-Oct-21 16:33N 53°32' E 009°58'0 0.0
2016-Oct-21 15:33N 53°32' E 009°58'2 1.9
2016-Oct-21 14:34N 53°32' E 009°54'10 9.8
2016-Oct-21 13:34N 53°34' E 009°38'30 7.4
2016-Oct-21 09:33N 53°51' E 008°57'7 7.4
2016-Oct-21 08:33N 53°52' E 008°44'15 7.3
2016-Oct-21 06:33N 53°59' E 008°23'8410.4
2016-Oct-20 22:33N 53°41' E 006°05'2210.9
2016-Oct-20 20:34N 53°34' E 005°30'45 9.0
2016-Oct-20 15:33N 53°07' E 004°30'15 7.5
2016-Oct-20 13:34N 52°54' E 004°18'6 6.0
2016-Oct-20 12:33N 52°48' E 004°14'6 5.8
2016-Oct-20 11:34N 52°42' E 004°15'6 6.4
2016-Oct-20 10:34N 52°36' E 004°18'5 4.9
2016-Oct-20 09:31N 52°31' E 004°20'0 0.0
2016-Oct-20 08:31N 52°31' E 004°20'0 0.1
2016-Oct-20 06:31N 52°31' E 004°20'0 0.0
2016-Oct-20 04:31N 52°31' E 004°20'0 0.0
2016-Oct-20 00:31N 52°31' E 004°20'0 0.0
2016-Oct-19 22:31N 52°31' E 004°20'0 0.0
2016-Oct-19 20:31N 52°31' E 004°20'0 0.1
2016-Oct-19 19:31N 52°32' E 004°20'0 0.0
2016-Oct-19 16:31N 52°32' E 004°20'2 2.3
2016-Oct-19 15:33N 52°30' E 004°23'8 8.2
2016-Oct-19 14:33N 52°28' E 004°36'11 5.3
2016-Oct-19 12:33N 52°24' E 004°52'0 0.0
2016-Oct-19 01:33N 52°24' E 004°52'0 0.1
2016-Oct-18 21:34N 52°24' E 004°53'2 0.8
2016-Oct-18 18:32N 52°25' E 004°49'0 0.0
2016-Oct-18 14:32N 52°25' E 004°49'0 0.0
2016-Oct-18 13:32N 52°25' E 004°49'0 0.0
2016-Oct-18 10:32N 52°25' E 004°49'0 0.0
2016-Oct-18 09:32N 52°25' E 004°49'6 2.9
2016-Oct-18 07:33N 52°27' E 004°41'3 3.5
2016-Oct-18 06:33N 52°28' E 004°35'24 6.1
2016-Oct-18 02:33N 52°26' E 003°55'54 7.8
2016-Oct-17 19:33N 51°35' E 003°24'27 8.9
2016-Oct-17 16:33N 51°23' E 004°02'9 8.7
2016-Oct-17 15:34N 51°21' E 004°15'5 2.5
2016-Oct-17 13:31N 51°17' E 004°21'0 0.0
2016-Oct-17 12:31N 51°17' E 004°21'0 0.0
2016-Oct-17 11:31N 51°17' E 004°21'16 2.3
2016-Oct-17 04:33N 51°24' E 003°57'7 6.9
2016-Oct-17 03:33N 51°21' E 003°47'9 8.7
2016-Oct-17 02:34N 51°25' E 003°34'1111.0
2016-Oct-17 01:33N 51°24' E 003°17'1211.8
2016-Oct-17 00:33N 51°22' E 002°58'59 8.5
2016-Oct-16 17:33N 50°56' E 001°33'65 8.9
2016-Oct-16 10:15N 50°19' E 000°09'810.7
2016-Oct-16 09:31N 50°16' W 000°02'  
Track history (hours):
 
Tides and Currents Weather Stations Pressure Air Temp Water Temp Dewpoint Dewpoint Depression Visibility Wind Speed Wind Dir Waves Ship Positions

Clare Christine

Last reported at 2016-Oct-26 09:12 UTC. Time now 2016-Dec-04 08:15 UTC.
Position N 53°32' E 009°58'.
Warning: this ship's position is 38 days out of date.

Length 89 m; draft 3.5 m.

Type: Cargo ship. MMSI: 305379000.

Date/timePositionNaut miles runAvg speedWind from/ knotsBaromVisibWave heightAir tempDewpointWater temp
2016-Oct-26 09:12N 53°32' E 009°58'0 0.0
2016-Oct-26 08:33N 53°32' E 009°58'0 0.0
2016-Oct-26 07:33N 53°32' E 009°58'0 0.0
2016-Oct-26 04:33N 53°32' E 009°58'0 0.0
2016-Oct-26 03:33N 53°32' E 009°58'0 0.0
2016-Oct-25 23:33N 53°32' E 009°58'0 0.0
2016-Oct-25 21:33N 53°32' E 009°58'0 0.0
2016-Oct-25 20:33N 53°32' E 009°58'0 0.0
2016-Oct-25 17:33N 53°32' E 009°58'0 0.0
2016-Oct-25 16:33N 53°32' E 009°58'0 0.0
2016-Oct-25 15:33N 53°32' E 009°58'0 0.0
2016-Oct-25 13:33N 53°32' E 009°58'0 0.0
2016-Oct-25 12:33N 53°32' E 009°58'0 0.0
2016-Oct-25 10:33N 53°32' E 009°58'0 0.0
2016-Oct-25 07:33N 53°32' E 009°58'0 0.0
2016-Oct-25 05:33N 53°32' E 009°58'0 0.0
2016-Oct-25 04:33N 53°32' E 009°58'0 0.0
2016-Oct-25 03:33N 53°32' E 009°58'0 0.0
2016-Oct-25 02:33N 53°32' E 009°58'0 0.0
2016-Oct-24 21:33N 53°32' E 009°58'0 0.0
2016-Oct-24 20:33N 53°32' E 009°58'0 0.0
2016-Oct-24 18:33N 53°32' E 009°58'0 0.0
2016-Oct-24 13:33N 53°32' E 009°58'0 0.0
2016-Oct-24 07:33N 53°32' E 009°58'0 0.0
2016-Oct-24 06:33N 53°32' E 009°58'0 0.0
2016-Oct-24 05:33N 53°32' E 009°58'0 0.0
2016-Oct-24 04:33N 53°32' E 009°58'0 0.0
2016-Oct-24 01:33N 53°32' E 009°58'0 0.0
2016-Oct-23 22:33N 53°32' E 009°58'0 0.0
2016-Oct-23 16:33N 53°32' E 009°58'0 0.0
2016-Oct-23 14:33N 53°32' E 009°58'0 0.0
2016-Oct-23 13:33N 53°32' E 009°58'0 0.0
2016-Oct-23 10:33N 53°32' E 009°58'0 0.0
2016-Oct-23 09:33N 53°32' E 009°58'0 0.0
2016-Oct-23 07:33N 53°32' E 009°58'0 0.0
2016-Oct-23 05:33N 53°32' E 009°58'0 0.0
2016-Oct-23 03:33N 53°32' E 009°58'0 0.0
2016-Oct-23 02:33N 53°32' E 009°58'0 0.0
2016-Oct-22 23:33N 53°32' E 009°58'0 0.0
2016-Oct-22 17:33N 53°32' E 009°58'0 0.0
2016-Oct-22 16:33N 53°32' E 009°58'0 0.0
2016-Oct-22 15:33N 53°32' E 009°58'0 0.0
2016-Oct-22 13:33N 53°32' E 009°58'0 0.0
2016-Oct-22 10:33N 53°32' E 009°58'0 0.0
2016-Oct-22 08:33N 53°32' E 009°58'0 0.0
2016-Oct-22 07:33N 53°32' E 009°58'0 0.0
2016-Oct-22 04:33N 53°32' E 009°58'0 0.0
2016-Oct-22 00:33N 53°32' E 009°58'0 0.0
2016-Oct-21 23:33N 53°32' E 009°58'0 0.0
2016-Oct-21 21:33N 53°32' E 009°58'0 0.0
2016-Oct-21 16:33N 53°32' E 009°58'0 0.0
2016-Oct-21 15:33N 53°32' E 009°58'2 1.9
2016-Oct-21 14:34N 53°32' E 009°54'10 9.8
2016-Oct-21 13:34N 53°34' E 009°38'30 7.4
2016-Oct-21 09:33N 53°51' E 008°57'7 7.4
2016-Oct-21 08:33N 53°52' E 008°44'15 7.3
2016-Oct-21 06:33N 53°59' E 008°23'8410.4
2016-Oct-20 22:33N 53°41' E 006°05'2210.9
2016-Oct-20 20:34N 53°34' E 005°30'45 9.0
2016-Oct-20 15:33N 53°07' E 004°30'15 7.5
2016-Oct-20 13:34N 52°54' E 004°18'6 6.0
2016-Oct-20 12:33N 52°48' E 004°14'6 5.8
2016-Oct-20 11:34N 52°42' E 004°15'6 6.4
2016-Oct-20 10:34N 52°36' E 004°18'5 4.9
2016-Oct-20 09:31N 52°31' E 004°20'0 0.0
2016-Oct-20 08:31N 52°31' E 004°20'0 0.1
2016-Oct-20 06:31N 52°31' E 004°20'0 0.0
2016-Oct-20 04:31N 52°31' E 004°20'0 0.0
2016-Oct-20 00:31N 52°31' E 004°20'0 0.0
2016-Oct-19 22:31N 52°31' E 004°20'0 0.0
2016-Oct-19 20:31N 52°31' E 004°20'0 0.1
2016-Oct-19 19:31N 52°32' E 004°20'0 0.0
2016-Oct-19 16:31N 52°32' E 004°20'2 2.3
2016-Oct-19 15:33N 52°30' E 004°23'8 8.2
2016-Oct-19 14:33N 52°28' E 004°36'11 5.3
2016-Oct-19 12:33N 52°24' E 004°52'0 0.0
2016-Oct-19 01:33N 52°24' E 004°52'0 0.1
2016-Oct-18 21:34N 52°24' E 004°53'2 0.8
2016-Oct-18 18:32N 52°25' E 004°49'0 0.0
2016-Oct-18 14:32N 52°25' E 004°49'0 0.0
2016-Oct-18 13:32N 52°25' E 004°49'0 0.0
2016-Oct-18 10:32N 52°25' E 004°49'0 0.0
2016-Oct-18 09:32N 52°25' E 004°49'6 2.9
2016-Oct-18 07:33N 52°27' E 004°41'3 3.5
2016-Oct-18 06:33N 52°28' E 004°35'24 6.1
2016-Oct-18 02:33N 52°26' E 003°55'54 7.8
2016-Oct-17 19:33N 51°35' E 003°24'27 8.9
2016-Oct-17 16:33N 51°23' E 004°02'9 8.7
2016-Oct-17 15:34N 51°21' E 004°15'5 2.5
2016-Oct-17 13:31N 51°17' E 004°21'0 0.0
2016-Oct-17 12:31N 51°17' E 004°21'0 0.0
2016-Oct-17 11:31N 51°17' E 004°21'16 2.3
2016-Oct-17 04:33N 51°24' E 003°57'7 6.9
2016-Oct-17 03:33N 51°21' E 003°47'9 8.7
2016-Oct-17 02:34N 51°25' E 003°34'1111.0
2016-Oct-17 01:33N 51°24' E 003°17'1211.8
2016-Oct-17 00:33N 51°22' E 002°58'59 8.5
2016-Oct-16 17:33N 50°56' E 001°33'65 8.9
2016-Oct-16 10:15N 50°19' E 000°09'810.7
2016-Oct-16 09:31N 50°16' W 000°02'  

Dump ship's entire track history